createdAt,value
2023-01-07T00:01:24.008Z,15.4
2023-01-07T00:03:30.625Z,15.3
2023-01-07T00:05:34.171Z,16.1
2023-01-07T00:07:37.768Z,12.7
2023-01-07T00:09:41.312Z,13.4
2023-01-07T00:11:44.906Z,14.8
2023-01-07T00:13:48.468Z,13.3
2023-01-07T00:15:52.086Z,13.6
2023-01-07T00:17:58.703Z,15.3
2023-01-07T00:20:02.261Z,13.4
2023-01-07T00:22:05.861Z,15.6
2023-01-07T00:23:09.177Z,14.9
2023-01-07T00:25:12.714Z,14.3
2023-01-07T00:27:16.320Z,14.1
2023-01-07T00:29:19.902Z,13.9
2023-01-07T00:31:26.677Z,14
2023-01-07T00:33:30.144Z,16.9
2023-01-07T00:35:33.680Z,14.3
2023-01-07T00:37:37.253Z,15.2
2023-01-07T00:39:42.024Z,14.6
2023-01-07T00:41:44.424Z,13.3
2023-01-07T00:43:47.974Z,15
2023-01-07T00:45:54.633Z,16
2023-01-07T00:47:58.217Z,18.7
2023-01-07T00:50:01.804Z,16.2
2023-01-07T00:52:05.392Z,13.6
2023-01-07T00:54:08.960Z,19.8
2023-01-07T00:56:12.544Z,26.3
2023-01-07T00:58:16.105Z,14.5
2023-01-07T01:04:29.877Z,12.6
2023-01-07T01:06:33.478Z,22.2
2023-01-07T01:08:37.017Z,16.8
2023-01-07T01:10:40.602Z,12.3
2023-01-07T01:14:50.810Z,17.9
2023-01-07T01:16:54.397Z,15.5
2023-01-07T01:18:57.979Z,13.4
2023-01-07T01:20:01.308Z,12.3
2023-01-07T01:22:04.853Z,17.3
2023-01-07T01:24:08.378Z,13.8
2023-01-07T01:26:11.963Z,15.4
2023-01-07T01:28:18.656Z,10.5
2023-01-07T01:30:22.202Z,11.6
2023-01-07T01:32:25.776Z,14.1
2023-01-07T01:34:29.322Z,14.6
2023-01-07T01:36:32.894Z,14.5
2023-01-07T01:40:40.115Z,12.8
2023-01-07T01:44:50.280Z,11.1
2023-01-07T01:46:53.917Z,10.2
2023-01-07T01:48:57.416Z,13.1
2023-01-07T01:51:01.011Z,13.9
2023-01-07T01:53:04.564Z,11.3
2023-01-07T01:59:18.330Z,9.8
2023-01-07T02:01:22.099Z,12.5
2023-01-07T02:03:25.445Z,11.6
2023-01-07T02:07:32.626Z,11.7
2023-01-07T02:09:36.193Z,11.4
2023-01-07T02:11:42.833Z,11.6
2023-01-07T02:13:46.402Z,11
2023-01-07T02:15:49.994Z,11.2
2023-01-07T02:16:53.358Z,12
2023-01-07T02:18:56.901Z,11.1
2023-01-07T02:21:00.486Z,9.9
2023-01-07T02:23:04.019Z,9.3
2023-01-07T02:25:10.708Z,14.1
2023-01-07T02:27:14.299Z,8.9
2023-01-07T02:29:17.851Z,11.5
2023-01-07T02:31:21.472Z,8.7
2023-01-07T02:33:24.967Z,8.5
2023-01-07T02:35:28.582Z,8.1
2023-01-07T02:37:32.164Z,13
2023-01-07T02:39:38.788Z,9.1
2023-01-07T02:41:42.363Z,10.7
2023-01-07T02:43:45.924Z,10.4
2023-01-07T02:45:49.589Z,7.6
2023-01-07T02:47:53.029Z,7.9
2023-01-07T02:49:56.603Z,8.2
2023-01-07T02:52:00.204Z,10.2
2023-01-07T02:54:06.838Z,9
2023-01-07T02:56:10.407Z,10.5
2023-01-07T02:58:13.956Z,10.5
2023-01-07T03:00:17.545Z,10.8
2023-01-07T03:02:21.125Z,7.4
2023-01-07T03:04:24.716Z,9.6
2023-01-07T03:06:28.267Z,18
2023-01-07T03:08:34.905Z,9.8
2023-01-07T03:10:38.473Z,5.8
2023-01-07T03:12:42.100Z,9.1
2023-01-07T03:15:01.745Z,8.3
2023-01-07T03:17:05.316Z,8.9
2023-01-07T03:19:08.885Z,7.5
2023-01-07T03:21:15.536Z,7.1
2023-01-07T03:23:19.110Z,11.4
2023-01-07T03:25:22.652Z,9.5
2023-01-07T03:27:26.215Z,5.7
2023-01-07T03:31:33.441Z,9
2023-01-07T03:37:47.166Z,6.6
2023-01-07T03:39:50.704Z,7.2
2023-01-07T03:41:54.292Z,7.1
2023-01-07T03:43:57.868Z,6.5
2023-01-07T03:46:01.486Z,6.4
2023-01-07T03:48:04.993Z,8.2
2023-01-07T03:50:11.824Z,6.3
2023-01-07T03:52:15.170Z,7.4
2023-01-07T03:54:18.726Z,11.2
2023-01-07T03:56:22.354Z,10.7
2023-01-07T03:58:25.841Z,6.8
2023-01-07T04:00:29.439Z,6.6
2023-01-07T04:04:39.711Z,6
2023-01-07T04:06:43.201Z,9.9
2023-01-07T04:08:46.776Z,5.4
2023-01-07T04:09:50.110Z,7.6
2023-01-07T04:11:53.703Z,7.5
2023-01-07T04:16:00.842Z,8.1
2023-01-07T04:20:11.068Z,10.9
2023-01-07T04:22:14.644Z,7.7
2023-01-07T04:26:21.819Z,5
2023-01-07T04:28:25.333Z,7.3
2023-01-07T04:30:28.978Z,5.3
2023-01-07T04:32:35.598Z,6.5
2023-01-07T04:34:39.168Z,6.9
2023-01-07T04:36:42.757Z,14
2023-01-07T04:38:46.320Z,12.7
2023-01-07T04:40:49.896Z,5.5
2023-01-07T04:42:53.504Z,5.7
2023-01-07T04:44:57.023Z,10.2
2023-01-07T04:47:03.680Z,5
2023-01-07T04:49:07.292Z,5.5
2023-01-07T04:51:10.860Z,7.1
2023-01-07T04:55:18.090Z,5
2023-01-07T04:57:21.602Z,10.7
2023-01-07T04:59:25.201Z,5.8
2023-01-07T05:01:31.916Z,4.7
2023-01-07T05:03:35.418Z,5.8
2023-01-07T05:05:39.000Z,7.2
2023-01-07T05:08:45.895Z,4.8
2023-01-07T05:12:53.030Z,4.6
2023-01-07T05:23:13.984Z,5
2023-01-07T05:27:21.195Z,8.5
2023-01-07T05:29:27.785Z,4.1
2023-01-07T05:31:31.405Z,4.9
2023-01-07T05:33:34.980Z,5.7
2023-01-07T05:35:38.556Z,6.3
2023-01-07T05:37:42.157Z,7.3
2023-01-07T05:39:45.724Z,3.7
2023-01-07T05:41:49.329Z,5.8
2023-01-07T05:43:55.949Z,4.1
2023-01-07T05:45:59.586Z,7.1
2023-01-07T05:48:03.098Z,5.8
2023-01-07T05:50:06.695Z,5.1
2023-01-07T05:54:13.842Z,3.8
2023-01-07T05:58:24.092Z,5.6
2023-01-07T06:02:31.227Z,3.5
2023-01-07T06:03:34.679Z,3.8
2023-01-07T06:05:38.160Z,5.5
2023-01-07T06:07:41.747Z,3.4
2023-01-07T06:09:45.340Z,5.3
2023-01-07T06:11:52.068Z,10.8
2023-01-07T06:14:02.691Z,6.7
2023-01-07T06:15:59.179Z,4.4
2023-01-07T06:18:02.735Z,3.2
2023-01-07T06:20:06.349Z,9.5
2023-01-07T06:22:09.911Z,3
2023-01-07T06:24:13.489Z,4.8
2023-01-07T06:26:20.179Z,6.3
2023-01-07T06:28:23.736Z,2.9
2023-01-07T06:32:30.917Z,4.6
2023-01-07T06:34:34.524Z,4.7
2023-01-07T06:36:38.114Z,3.9
2023-01-07T06:38:41.632Z,3.2
2023-01-07T06:42:51.891Z,2.1
2023-01-07T06:44:55.467Z,2.8
2023-01-07T06:46:59.047Z,4.4
2023-01-07T06:49:02.655Z,4.7
2023-01-07T06:51:06.224Z,3.6
2023-01-07T06:59:23.569Z,3.9
2023-01-07T07:03:52.908Z,2.5
2023-01-07T07:05:56.470Z,3.8
2023-01-07T07:08:03.132Z,2.7
2023-01-07T07:10:06.733Z,3.1
2023-01-07T07:18:21.031Z,5.1
2023-01-07T07:20:24.622Z,2.9
2023-01-07T07:22:31.246Z,3.5
2023-01-07T07:24:34.837Z,5.3
2023-01-07T07:26:38.433Z,2.3
2023-01-07T07:28:41.990Z,5.5
2023-01-07T07:30:48.077Z,1.6
2023-01-07T07:32:49.169Z,2.1
2023-01-07T07:34:52.714Z,1.9
2023-01-07T07:36:59.347Z,2.6
2023-01-07T07:39:03.005Z,1.7
2023-01-07T07:41:06.542Z,3.3
2023-01-07T07:43:13.053Z,2.1
2023-01-07T07:45:13.680Z,3.4
2023-01-07T07:47:17.241Z,3.6
2023-01-07T07:49:20.839Z,2.1
2023-01-07T07:51:27.460Z,2.4
2023-01-07T07:53:31.062Z,3
2023-01-07T07:55:34.645Z,4.3
2023-01-07T07:56:37.982Z,3.8
2023-01-07T07:58:41.568Z,2.8
2023-01-07T08:00:45.125Z,2.2
2023-01-07T08:04:55.311Z,1.2
2023-01-07T08:09:02.465Z,1.2
2023-01-07T08:11:06.042Z,1.2
2023-01-07T08:17:16.766Z,1.3
2023-01-07T08:19:23.412Z,3.4
2023-01-07T08:21:26.998Z,2.6
2023-01-07T08:29:41.284Z,2.7
2023-01-07T08:31:44.910Z,1.9
2023-01-07T08:33:51.532Z,1.4
2023-01-07T08:35:55.123Z,1.2
2023-01-07T08:37:58.712Z,1.2
2023-01-07T08:40:04.604Z,3.5
2023-01-07T08:42:05.869Z,3
2023-01-07T08:44:09.388Z,2.3
2023-01-07T08:46:12.979Z,1.3
2023-01-07T08:53:30.218Z,1.4
2023-01-07T08:55:33.699Z,0.9
2023-01-07T08:57:37.290Z,1.9
2023-01-07T08:59:40.867Z,1.7
2023-01-07T09:01:47.653Z,4
2023-01-07T09:03:51.116Z,1.2
2023-01-07T09:05:54.702Z,2.1
2023-01-07T09:07:58.274Z,2.6
2023-01-07T09:12:08.345Z,2.5
2023-01-07T09:16:17.466Z,0.5
2023-01-07T09:18:22.459Z,1.1
2023-01-07T09:24:31.476Z,3.1
2023-01-07T09:26:35.056Z,7.1
2023-01-07T09:28:38.619Z,0.7
2023-01-07T09:30:45.280Z,2.8
2023-01-07T09:32:48.851Z,1
2023-01-07T09:34:52.449Z,1.6
2023-01-07T09:36:55.975Z,1.6
2023-01-07T09:38:59.571Z,4
2023-01-07T09:41:03.190Z,1.3
2023-01-07T09:43:06.737Z,1.2
2023-01-07T09:47:16.971Z,0.8
2023-01-07T09:49:20.564Z,0.6
2023-01-07T09:50:25.169Z,2.1
2023-01-07T09:52:27.586Z,1.6
2023-01-07T09:54:31.057Z,2
2023-01-07T09:56:34.625Z,1.6
2023-01-07T09:58:41.269Z,2.4
2023-01-07T10:00:44.855Z,2.9
2023-01-07T10:04:51.969Z,1.5
2023-01-07T10:08:59.131Z,1.3
2023-01-07T10:11:02.694Z,1.9
2023-01-07T10:13:14.426Z,0.8
2023-01-07T10:15:12.923Z,1.1
2023-01-07T10:17:16.479Z,2.5
2023-01-07T10:19:20.052Z,0.9
2023-01-07T10:21:23.638Z,3.2
2023-01-07T10:23:27.191Z,2.4
2023-01-07T10:25:30.768Z,3
2023-01-07T10:29:40.969Z,2.6
2023-01-07T10:31:44.556Z,5.1
2023-01-07T10:33:48.103Z,0.9
2023-01-07T10:35:51.665Z,1.3
2023-01-07T10:37:55.277Z,1.4
2023-01-07T10:39:58.829Z,1
2023-01-07T10:42:05.457Z,1.2
2023-01-07T10:44:08.991Z,1.2
2023-01-07T10:46:12.707Z,1.2
2023-01-07T10:50:34.268Z,0.6
2023-01-07T10:54:44.505Z,1.2
2023-01-07T10:56:48.073Z,2.2
2023-01-07T10:58:51.653Z,1.1
2023-01-07T11:00:55.326Z,0.4
2023-01-07T11:02:58.851Z,1.1
2023-01-07T11:05:02.340Z,1.2
2023-01-07T11:07:05.909Z,1
2023-01-07T11:09:12.537Z,1
2023-01-07T11:11:16.088Z,0.6
2023-01-07T11:13:19.678Z,4.7
2023-01-07T11:15:23.546Z,0.8
2023-01-07T11:17:26.806Z,1.4
2023-01-07T11:19:30.342Z,1.3
2023-01-07T11:21:43.624Z,1.1
2023-01-07T11:23:42.791Z,0.8
2023-01-07T11:25:44.060Z,0.7
2023-01-07T11:27:47.614Z,2.3
2023-01-07T11:29:51.515Z,1.8
2023-01-07T11:31:54.795Z,1.1
2023-01-07T11:34:02.305Z,1.6
2023-01-07T11:36:01.831Z,0.6
2023-01-07T11:38:08.382Z,0.4
2023-01-07T11:40:11.907Z,0.5
2023-01-07T11:42:15.460Z,0.5
2023-01-07T11:43:18.743Z,1.5
2023-01-07T11:45:22.282Z,0.5
2023-01-07T11:47:25.793Z,0.6
2023-01-07T11:49:29.325Z,5.4
2023-01-07T11:53:39.515Z,0.8
2023-01-07T11:55:43.021Z,1.7
2023-01-07T12:06:03.741Z,3.8
2023-01-07T12:08:07.311Z,1.2
2023-01-07T12:12:14.357Z,3.5
2023-01-07T12:16:21.500Z,2.9
2023-01-07T12:18:24.997Z,1
2023-01-07T12:20:31.588Z,3.1
2023-01-07T12:22:35.137Z,0.9
2023-01-07T12:24:38.632Z,1.1
2023-01-07T12:26:42.153Z,1.6
2023-01-07T12:28:45.694Z,0.7
2023-01-07T12:30:49.196Z,0.8
2023-01-07T12:32:52.715Z,1.5
2023-01-07T12:34:59.789Z,0.9
2023-01-07T12:37:02.892Z,1.2
2023-01-07T12:39:06.577Z,5.5
2023-01-07T12:42:13.195Z,1.4
2023-01-07T12:44:16.727Z,0.6
2023-01-07T12:46:20.351Z,7.7
2023-01-07T12:48:26.925Z,1.3
2023-01-07T12:54:37.445Z,0.8
2023-01-07T12:56:40.970Z,0.9
2023-01-07T12:58:44.445Z,1.6
2023-01-07T13:00:47.951Z,1
2023-01-07T13:02:54.632Z,8.1
2023-01-07T13:04:58.132Z,1.5
2023-01-07T13:07:01.651Z,0.8
2023-01-07T13:09:05.142Z,2
2023-01-07T13:11:08.686Z,1.4
2023-01-07T13:13:14.074Z,8.3
2023-01-07T13:17:22.343Z,0.8
2023-01-07T13:19:25.856Z,2.4
2023-01-07T13:21:29.361Z,3.3
2023-01-07T13:23:32.902Z,1.4
2023-01-07T13:25:36.414Z,0.6
2023-01-07T13:29:43.459Z,3.3
2023-01-07T13:33:53.632Z,1.7
2023-01-07T13:35:57.507Z,1.5
2023-01-07T13:41:07.539Z,3.2
2023-01-07T13:43:11.061Z,0.8
2023-01-07T13:47:21.245Z,0.8
2023-01-07T13:49:24.777Z,1.4
2023-01-07T13:51:28.301Z,1.7
2023-01-07T13:53:31.873Z,1.1
2023-01-07T13:55:35.369Z,1.1
2023-01-07T13:59:45.548Z,1.8
2023-01-07T14:01:49.250Z,4.8
2023-01-07T14:03:52.646Z,1.3
2023-01-07T14:14:13.516Z,1.1
2023-01-07T14:16:17.162Z,1.2
2023-01-07T14:18:20.655Z,1.6
2023-01-07T14:20:24.208Z,2.1
2023-01-07T14:22:27.777Z,2.2
2023-01-07T14:24:31.334Z,1.8
2023-01-07T14:26:34.871Z,1.6
2023-01-07T14:28:41.471Z,1.6
2023-01-07T14:30:45.160Z,2.2
2023-01-07T14:32:48.610Z,4.7
2023-01-07T14:35:08.038Z,1.5
2023-01-07T14:37:10.505Z,1.9
2023-01-07T14:39:14.095Z,2
2023-01-07T14:41:20.767Z,3.4
2023-01-07T14:43:24.288Z,1.2
2023-01-07T14:45:27.887Z,1.6
2023-01-07T14:47:31.381Z,3.2
2023-01-07T14:49:35.004Z,1.8
2023-01-07T14:53:42.108Z,2.4
2023-01-07T15:01:59.487Z,5.2
2023-01-07T15:04:03.029Z,3.2
2023-01-07T15:06:08.210Z,5.9
2023-01-07T15:08:11.698Z,2.4
2023-01-07T15:12:21.940Z,2.7
2023-01-07T15:14:25.514Z,3.1
2023-01-07T15:16:29.159Z,3.1
2023-01-07T15:18:32.694Z,2.5
2023-01-07T15:20:36.274Z,3
2023-01-07T15:24:46.495Z,3.6
2023-01-07T15:26:50.114Z,3.5
2023-01-07T15:28:53.666Z,3.6
2023-01-07T15:29:56.970Z,4.2
2023-01-07T15:32:00.607Z,3.4
2023-01-07T15:34:04.173Z,3.4
2023-01-07T15:36:07.748Z,3.9
2023-01-07T15:38:14.410Z,3.1
2023-01-07T15:40:17.968Z,2.5
2023-01-07T15:42:21.571Z,2.6
2023-01-07T15:44:25.158Z,6.4
2023-01-07T15:46:28.771Z,2.2
2023-01-07T15:54:46.133Z,4.4
2023-01-07T15:56:49.723Z,5.3
2023-01-07T15:58:53.281Z,3.2
2023-01-07T16:00:56.929Z,2.6
2023-01-07T16:03:00.443Z,2.1
2023-01-07T16:05:04.122Z,2.2
2023-01-07T16:07:10.707Z,2.2
2023-01-07T16:09:14.222Z,2.1
2023-01-07T16:11:17.795Z,2.1
2023-01-07T16:13:21.381Z,2.9
2023-01-07T16:17:28.560Z,2.6
2023-01-07T16:21:38.787Z,3.8
2023-01-07T16:23:42.351Z,2.3
2023-01-07T16:25:45.907Z,2.3
2023-01-07T16:26:49.253Z,2.6
2023-01-07T16:28:52.832Z,2.5
2023-01-07T16:30:56.375Z,1.8
2023-01-07T16:32:59.942Z,1.4
2023-01-07T16:35:06.604Z,3.4
2023-01-07T16:37:10.169Z,2.4
2023-01-07T16:39:13.714Z,2.9
2023-01-07T16:41:17.271Z,11.1
2023-01-07T16:43:20.839Z,2
2023-01-07T16:45:24.401Z,2.9
2023-01-07T16:47:27.978Z,2.9
2023-01-07T16:49:34.630Z,14.5
2023-01-07T16:51:38.162Z,1.9
2023-01-07T16:53:41.744Z,2.8
2023-01-07T16:55:45.344Z,9
2023-01-07T16:57:48.869Z,2.4
2023-01-07T16:59:53.995Z,2.6
2023-01-07T17:01:56.051Z,2
2023-01-07T17:04:02.854Z,1.7
2023-01-07T17:06:06.250Z,1.4
2023-01-07T17:08:09.806Z,2.4
2023-01-07T17:10:13.398Z,3.4
2023-01-07T17:12:16.938Z,4
2023-01-07T17:14:20.529Z,2.6
2023-01-07T17:16:24.343Z,1.6
2023-01-07T17:18:30.793Z,6.7
2023-01-07T17:20:34.333Z,2.3
2023-01-07T17:22:37.916Z,3.2
2023-01-07T17:23:41.242Z,3.4
2023-01-07T17:27:48.356Z,3.3
2023-01-07T17:29:51.967Z,2.2
2023-01-07T17:31:58.627Z,2.9
2023-01-07T17:38:09.414Z,2.3
2023-01-07T17:42:16.600Z,3.3
2023-01-07T17:44:20.173Z,2.1
2023-01-07T17:46:27.745Z,2.3
2023-01-07T17:48:30.396Z,2.6
2023-01-07T17:52:37.625Z,3.2
2023-01-07T17:54:41.219Z,3
2023-01-07T17:58:48.376Z,2
2023-01-07T18:00:55.396Z,2.9
2023-01-07T18:02:58.788Z,2.6
2023-01-07T18:05:02.295Z,11.2
2023-01-07T18:07:05.907Z,10.5
2023-01-07T18:09:09.490Z,6
2023-01-07T18:11:13.095Z,10.7
2023-01-07T18:13:16.722Z,4.8
2023-01-07T18:15:23.371Z,3.2
2023-01-07T18:17:26.971Z,3.1
2023-01-07T18:19:30.599Z,6.6
2023-01-07T18:23:58.336Z,4
2023-01-07T18:26:01.940Z,7.4
2023-01-07T18:28:08.666Z,7
2023-01-07T18:32:15.855Z,38.8
2023-01-07T18:34:19.423Z,12.7
2023-01-07T18:36:23.037Z,7
2023-01-07T18:38:26.683Z,8.8
2023-01-07T18:40:30.287Z,9.7
2023-01-07T18:42:36.959Z,42.6
2023-01-07T18:44:40.555Z,13.4
2023-01-07T18:46:44.192Z,9.6
2023-01-07T18:48:47.810Z,13.6
2023-01-07T18:54:58.621Z,5.3
2023-01-07T18:59:08.926Z,6.2
2023-01-07T19:01:12.859Z,5
2023-01-07T19:03:16.152Z,6.9
2023-01-07T19:05:19.736Z,5.4
2023-01-07T19:07:23.348Z,4.4
2023-01-07T19:09:26.998Z,8.5
2023-01-07T19:13:37.241Z,4.3
2023-01-07T19:16:44.516Z,5.9
2023-01-07T19:18:47.974Z,7.3
2023-01-07T19:20:51.426Z,4.9
2023-01-07T19:22:54.985Z,6.4
2023-01-07T19:25:01.690Z,5.5
2023-01-07T19:27:05.323Z,4.5
2023-01-07T19:29:08.935Z,5.5
2023-01-07T19:33:16.076Z,4.4
2023-01-07T19:43:37.218Z,5.1
2023-01-07T19:58:05.537Z,3.7
2023-01-07T20:04:16.363Z,4.7
2023-01-07T20:10:30.217Z,5.4
2023-01-07T20:13:37.182Z,4.9
2023-01-07T20:15:40.812Z,5.9
2023-01-07T20:17:44.396Z,3.5
2023-01-07T20:19:47.954Z,3.3
2023-01-07T20:21:54.633Z,6.6
2023-01-07T20:23:58.268Z,4.9
2023-01-07T20:26:01.849Z,8.1
2023-01-07T20:28:05.434Z,22.5
2023-01-07T20:30:09.062Z,3.9
2023-01-07T20:32:12.632Z,2.6
2023-01-07T20:34:16.268Z,5.3
2023-01-07T20:36:22.939Z,2.7
2023-01-07T20:38:26.501Z,4.3
2023-01-07T20:40:30.096Z,3.7
2023-01-07T20:42:33.699Z,3.9
2023-01-07T20:44:37.300Z,3.2
2023-01-07T20:46:40.933Z,4.7
2023-01-07T20:48:44.461Z,3.4
2023-01-07T20:50:51.119Z,2.2
2023-01-07T20:52:54.724Z,3
2023-01-07T20:54:58.345Z,2.4
2023-01-07T20:57:01.920Z,2.1
2023-01-07T20:59:05.510Z,7.9
2023-01-07T21:01:09.276Z,3
2023-01-07T21:03:14.344Z,2.5
2023-01-07T21:05:20.866Z,2.4
2023-01-07T21:07:24.426Z,2.2
2023-01-07T21:09:27.986Z,5.8
2023-01-07T21:10:31.354Z,2.2
2023-01-07T21:12:34.967Z,3.3
2023-01-07T21:14:38.526Z,4.5
2023-01-07T21:16:42.219Z,2.2
2023-01-07T21:18:48.752Z,2.4
2023-01-07T21:20:52.356Z,2.4
2023-01-07T21:22:55.980Z,3.9
2023-01-07T21:24:59.570Z,2
2023-01-07T21:27:03.191Z,2.3
2023-01-07T21:29:06.749Z,1.9
2023-01-07T21:31:10.411Z,1.8
2023-01-07T21:35:20.634Z,2.1
2023-01-07T21:37:24.228Z,2.2
2023-01-07T21:39:27.843Z,2.2
2023-01-07T21:41:31.426Z,2.7
2023-01-07T21:45:38.613Z,1.8
2023-01-07T21:49:49.152Z,3.4
2023-01-07T21:51:52.451Z,3.1
2023-01-07T21:53:56.105Z,1.9
2023-01-07T21:55:59.656Z,2.9
2023-01-07T21:58:03.247Z,5
2023-01-07T22:00:06.857Z,1.8
2023-01-07T22:02:13.698Z,1.7
2023-01-07T22:04:17.169Z,1.7
2023-01-07T22:06:22.135Z,1.7
2023-01-07T22:08:44.956Z,1.8
2023-01-07T22:10:48.546Z,2.5
2023-01-07T22:12:52.125Z,1.3
2023-01-07T22:14:58.763Z,3.3
2023-01-07T22:17:02.366Z,1.7
2023-01-07T22:19:05.981Z,2.2
2023-01-07T22:21:09.517Z,2.1
2023-01-07T22:25:16.714Z,2.7
2023-01-07T22:27:20.295Z,3.7
2023-01-07T22:29:26.965Z,4.7
2023-01-07T22:31:30.617Z,3.1
2023-01-07T22:33:34.169Z,2.7
2023-01-07T22:35:37.722Z,3.8
2023-01-07T22:37:41.318Z,3.1
2023-01-07T22:41:48.493Z,2.1
2023-01-07T22:43:55.131Z,2.8
2023-01-07T22:45:58.851Z,2.6
2023-01-07T22:48:02.263Z,3.7
2023-01-07T22:50:05.870Z,1.7
2023-01-07T22:52:09.455Z,3.6
2023-01-07T22:54:13.036Z,3.8
2023-01-07T22:56:16.645Z,2.4
2023-01-07T22:58:23.276Z,5.2
2023-01-07T23:00:26.958Z,1.9
2023-01-07T23:02:30.455Z,2.4
2023-01-07T23:03:33.975Z,2.2
2023-01-07T23:05:37.375Z,1.6
2023-01-07T23:07:40.979Z,2.1
2023-01-07T23:09:44.536Z,3.9
2023-01-07T23:11:51.208Z,2.2
2023-01-07T23:15:58.419Z,2.5
2023-01-07T23:26:19.405Z,1.9
2023-01-07T23:28:22.941Z,2.5
2023-01-07T23:30:26.518Z,2.1
2023-01-07T23:32:30.110Z,2.1
2023-01-07T23:34:33.702Z,2.9
2023-01-07T23:36:37.298Z,3.1
2023-01-07T23:38:41.023Z,2.1
2023-01-07T23:40:47.520Z,2.8
2023-01-07T23:42:51.132Z,3.3
2023-01-07T23:44:54.701Z,2.3
2023-01-07T23:46:58.295Z,2.4
2023-01-07T23:49:01.826Z,2.4
2023-01-07T23:51:05.424Z,3.2
2023-01-07T23:53:09.046Z,3.4
2023-01-07T23:57:19.277Z,2.6
